Time;durP1;ratioP1;P1;durP2;ratioP2;P2;SDS_P1;SDS_P2;PMS_P1;PMS_P2;Temp;Humidity;BMP_temperature;BMP_pressure;BME280_temperature;BME280_humidity;BME280_pressure;Samples;Min_cycle;Max_cycle;Signal;HPM_P1;HPM_P2
2023/11/10 00:01:01;;;;;;;2.92;1.90;;;8.90;99.90;;;;;;5016752;28;20186;-83
2023/11/10 00:03:28;;;;;;;1.85;1.63;;;8.90;99.90;;;;;;5017128;28;20193;-82
2023/11/10 00:05:55;;;;;;;6.95;1.75;;;9.10;99.90;;;;;;5016866;28;20214;-82
2023/11/10 00:08:22;;;;;;;2.67;1.58;;;8.90;99.90;;;;;;5009074;28;20222;-81
2023/11/10 00:10:51;;;;;;;1.98;1.40;;;8.90;99.90;;;;;;5016750;28;20265;-81
2023/11/10 00:13:18;;;;;;;4.55;1.48;;;8.90;99.90;;;;;;5011251;28;20203;-81
2023/11/10 00:15:50;;;;;;;4.20;1.30;;;8.90;99.90;;;;;;5011182;28;20632;-80
2023/11/10 00:18:17;;;;;;;1.55;1.00;;;8.80;99.90;;;;;;5011761;28;20289;-82
2023/11/10 00:20:44;;;;;;;1.52;1.42;;;8.80;99.90;;;;;;5016282;28;20229;-82
2023/11/10 00:23:10;;;;;;;2.38;1.23;;;8.70;99.90;;;;;;5016703;28;20222;-82
2023/11/10 00:25:37;;;;;;;1.63;1.25;;;8.70;99.90;;;;;;5019824;28;20201;-82
2023/11/10 00:28:05;;;;;;;2.58;1.27;;;8.70;99.90;;;;;;5013729;28;20230;-83
2023/11/10 00:30:32;;;;;;;1.63;1.25;;;8.80;99.90;;;;;;5011245;28;20237;-82
2023/11/10 00:33:00;;;;;;;1.88;1.48;;;8.90;99.90;;;;;;5008175;28;20206;-82
2023/11/10 00:35:27;;;;;;;4.93;2.65;;;8.80;99.90;;;;;;5006346;28;20277;-82
2023/11/10 00:37:53;;;;;;;1.55;1.45;;;8.70;99.90;;;;;;5013325;28;20225;-82
2023/11/10 00:40:20;;;;;;;3.03;2.60;;;8.80;99.90;;;;;;5004671;28;20280;-80
2023/11/10 00:42:47;;;;;;;4.40;2.20;;;8.80;99.90;;;;;;4998187;28;20218;-81
2023/11/10 00:45:14;;;;;;;3.65;2.60;;;8.70;99.90;;;;;;5002878;28;20229;-81
2023/11/10 00:47:41;;;;;;;4.80;2.50;;;8.80;99.90;;;;;;5012660;28;20231;-82
2023/11/10 00:50:10;;;;;;;3.22;2.92;;;8.80;99.90;;;;;;5006266;28;20263;-83
2023/11/10 00:52:37;;;;;;;4.35;3.17;;;8.80;99.90;;;;;;5011893;28;20724;-82
2023/11/10 00:55:06;;;;;;;6.55;3.50;;;8.80;99.90;;;;;;5006998;28;20292;-82
2023/11/10 00:57:33;;;;;;;3.97;3.67;;;8.70;99.90;;;;;;5004637;28;20248;-82
2023/11/10 00:59:59;;;;;;;4.18;3.70;;;8.70;99.90;;;;;;5015002;28;20261;-82
2023/11/10 01:02:26;;;;;;;3.60;3.30;;;8.80;99.90;;;;;;5009044;28;20261;-82
2023/11/10 01:04:53;;;;;;;7.95;3.83;;;8.70;99.90;;;;;;5009709;28;20211;-84
2023/11/10 01:07:21;;;;;;;5.85;4.80;;;8.70;99.90;;;;;;5022449;28;20224;-81
2023/11/10 01:09:48;;;;;;;6.07;4.63;;;8.80;99.90;;;;;;5015142;28;20277;-82
2023/11/10 01:12:16;;;;;;;5.07;4.55;;;8.90;99.90;;;;;;5003449;28;20232;-84
2023/11/10 01:14:43;;;;;;;5.43;5.03;;;8.90;99.90;;;;;;5004197;28;20237;-82
2023/11/10 01:17:10;;;;;;;6.20;5.70;;;8.80;99.90;;;;;;5001772;28;20553;-83
2023/11/10 01:19:37;;;;;;;7.95;6.70;;;8.80;99.90;;;;;;5001125;28;20312;-82
2023/11/10 01:22:04;;;;;;;6.38;5.78;;;8.90;99.90;;;;;;5009462;28;20209;-81
2023/11/10 01:24:34;;;;;;;5.78;5.28;;;8.80;99.90;;;;;;5004370;28;20248;-83
2023/11/10 01:27:00;;;;;;;6.50;5.70;;;8.90;99.90;;;;;;5002968;28;20202;-82
2023/11/10 01:29:27;;;;;;;5.97;5.35;;;9.00;99.90;;;;;;4996924;28;20260;-83
2023/11/10 01:31:54;;;;;;;7.18;6.53;;;9.00;99.90;;;;;;5003674;28;20205;-83
2023/11/10 01:34:21;;;;;;;7.13;6.47;;;9.00;99.90;;;;;;4995037;28;20284;-83
2023/11/10 01:36:48;;;;;;;7.93;7.13;;;9.00;99.90;;;;;;5004319;28;20236;-82
2023/11/10 01:39:15;;;;;;;7.97;7.35;;;9.00;99.90;;;;;;5005299;28;20320;-81
2023/11/10 01:41:43;;;;;;;8.90;8.10;;;8.90;99.90;;;;;;5004971;28;20229;-83
2023/11/10 01:44:10;;;;;;;11.77;6.93;;;8.90;99.90;;;;;;5005886;28;20225;-83
2023/11/10 01:46:46;;;;;;;9.35;8.63;;;9.10;99.90;;;;;;5007265;28;20262;-83
2023/11/10 01:49:15;;;;;;;9.48;8.30;;;9.00;99.90;;;;;;5009187;28;20249;-82
2023/11/10 01:51:43;;;;;;;8.05;7.25;;;9.00;99.90;;;;;;5011520;28;20675;-82
2023/11/10 01:54:12;;;;;;;8.80;7.93;;;8.90;99.90;;;;;;5005711;28;20199;-82
2023/11/10 01:56:39;;;;;;;10.23;8.30;;;9.00;99.90;;;;;;5011042;28;20204;-82
2023/11/10 01:59:13;;;;;;;8.10;7.30;;;8.80;99.90;;;;;;5010766;28;20296;-82
2023/11/10 02:01:40;;;;;;;7.78;6.63;;;8.90;99.90;;;;;;5005615;28;20208;-82
2023/11/10 02:04:08;;;;;;;8.93;8.20;;;8.90;99.90;;;;;;5005582;28;20209;-82
2023/11/10 02:06:35;;;;;;;10.65;6.45;;;9.00;99.90;;;;;;5005435;28;20233;-82
2023/11/10 02:09:02;;;;;;;10.65;8.82;;;9.00;99.90;;;;;;5018064;28;20312;-83
2023/11/10 02:11:31;;;;;;;7.35;6.65;;;8.90;99.90;;;;;;5002994;28;20205;-81
2023/11/10 02:14:01;;;;;;;9.18;7.18;;;8.90;99.90;;;;;;5011889;28;20208;-81
2023/11/10 02:16:30;;;;;;;8.95;8.05;;;8.90;99.90;;;;;;5019388;28;20197;-81
2023/11/10 02:18:58;;;;;;;8.98;8.05;;;8.90;99.90;;;;;;5000568;28;20824;-82
2023/11/10 02:21:25;;;;;;;9.40;8.15;;;9.00;99.90;;;;;;5002070;28;20229;-82
2023/11/10 02:24:07;;;;;;;9.30;8.40;;;9.00;99.90;;;;;;5005004;28;20301;-82
2023/11/10 02:26:36;;;;;;;9.90;7.80;;;8.90;99.90;;;;;;4997077;28;20228;-82
2023/11/10 02:29:04;;;;;;;10.13;7.20;;;9.00;99.90;;;;;;5004392;28;20316;-82
2023/11/10 02:31:30;;;;;;;9.88;8.20;;;9.00;99.90;;;;;;5004264;28;20280;-83
2023/11/10 02:33:59;;;;;;;16.67;9.75;;;8.90;99.90;;;;;;5004252;28;20229;-82
2023/11/10 02:36:29;;;;;;;9.82;8.05;;;9.00;99.90;;;;;;5004675;28;20198;-82
2023/11/10 02:38:55;;;;;;;10.95;9.90;;;9.00;99.90;;;;;;5002556;28;20264;-82
2023/11/10 02:41:22;;;;;;;10.00;9.00;;;9.20;99.90;;;;;;5003644;28;20221;-83
2023/11/10 02:43:51;;;;;;;13.00;9.95;;;9.10;99.90;;;;;;5001704;28;20300;-82
2023/11/10 02:46:18;;;;;;;11.25;9.13;;;9.20;99.90;;;;;;5003324;28;20206;-82
2023/11/10 02:48:44;;;;;;;8.85;7.95;;;9.20;99.90;;;;;;4997923;28;20232;-82
2023/11/10 02:51:11;;;;;;;13.18;9.05;;;9.20;99.90;;;;;;4999944;28;20642;-82
2023/11/10 02:53:38;;;;;;;12.75;9.35;;;9.20;99.90;;;;;;5006823;28;20216;-82
2023/11/10 02:56:06;;;;;;;9.63;8.18;;;9.10;99.90;;;;;;5008148;28;20211;-83
2023/11/10 02:58:34;;;;;;;10.73;8.82;;;9.10;99.90;;;;;;4999480;28;20237;-83
2023/11/10 03:01:02;;;;;;;8.50;7.72;;;9.10;99.90;;;;;;5005314;28;20228;-83
2023/11/10 03:03:29;;;;;;;6.80;5.90;;;9.00;99.90;;;;;;5003208;28;20296;-84
2023/11/10 03:05:56;;;;;;;11.95;7.80;;;9.00;99.90;;;;;;5013502;28;20225;-83
2023/11/10 03:08:25;;;;;;;7.50;6.68;;;9.00;99.90;;;;;;4995886;28;20604;-83
2023/11/10 03:10:52;;;;;;;7.93;6.90;;;9.00;99.90;;;;;;5016867;28;20186;-81
2023/11/10 03:13:19;;;;;;;6.38;5.88;;;8.90;99.90;;;;;;5025246;28;20185;-81
2023/11/10 03:15:46;;;;;;;7.22;6.32;;;9.00;99.90;;;;;;5018057;28;20194;-80
2023/11/10 03:18:14;;;;;;;7.18;6.50;;;9.00;99.90;;;;;;5018593;28;20260;-81
2023/11/10 03:20:42;;;;;;;8.00;6.38;;;9.10;99.90;;;;;;5025284;28;20217;-81
2023/11/10 03:23:09;;;;;;;7.85;7.07;;;9.20;99.90;;;;;;5019139;28;20266;-81
2023/11/10 03:25:36;;;;;;;7.70;6.90;;;9.10;99.90;;;;;;5014483;28;20202;-81
2023/11/10 03:28:03;;;;;;;8.38;7.57;;;9.10;99.90;;;;;;5019067;28;20241;-81
2023/11/10 03:30:29;;;;;;;8.63;7.72;;;9.10;99.90;;;;;;5030796;28;20230;-81
2023/11/10 03:32:56;;;;;;;7.40;6.68;;;9.20;99.90;;;;;;5003788;28;20290;-81
2023/11/10 03:35:24;;;;;;;9.48;8.57;;;9.30;99.90;;;;;;5001931;28;20206;-81
2023/11/10 03:37:51;;;;;;;11.13;10.02;;;9.10;99.90;;;;;;5007621;28;20301;-82
2023/11/10 03:40:20;;;;;;;12.95;11.27;;;9.10;99.90;;;;;;5002551;28;20304;-82
2023/11/10 03:42:47;;;;;;;12.93;11.50;;;9.10;99.90;;;;;;5003279;28;20217;-82
2023/11/10 03:45:14;;;;;;;11.65;8.93;;;9.10;99.90;;;;;;5003030;28;20232;-82
2023/11/10 03:47:41;;;;;;;10.00;9.05;;;9.10;99.90;;;;;;4998848;28;20225;-82
2023/11/10 03:50:09;;;;;;;12.63;10.95;;;9.00;99.90;;;;;;5002937;28;20207;-81
2023/11/10 03:52:37;;;;;;;12.15;10.77;;;9.00;99.90;;;;;;5006858;28;20269;-81
2023/11/10 03:55:05;;;;;;;13.82;12.40;;;9.00;99.90;;;;;;5000947;28;20344;-81
2023/11/10 03:57:32;;;;;;;11.48;10.27;;;8.80;99.90;;;;;;5002028;28;20225;-81
2023/11/10 03:59:59;;;;;;;14.52;11.23;;;8.80;99.90;;;;;;4989789;28;20233;-80
2023/11/10 04:02:26;;;;;;;15.15;11.38;;;8.80;99.90;;;;;;4997970;28;20209;-81
2023/11/10 04:04:52;;;;;;;13.23;10.95;;;8.80;99.90;;;;;;4997933;28;20209;-81
2023/11/10 04:07:20;;;;;;;14.48;11.05;;;8.80;99.90;;;;;;4998008;28;20308;-80
2023/11/10 04:09:48;;;;;;;16.80;12.50;;;8.70;99.90;;;;;;5013464;28;20205;-82
2023/11/10 04:12:14;;;;;;;12.73;11.43;;;8.80;99.90;;;;;;4999936;28;20197;-81
2023/11/10 04:14:41;;;;;;;12.13;10.98;;;8.80;99.90;;;;;;5008049;28;20225;-81
2023/11/10 04:17:08;;;;;;;12.43;11.18;;;8.80;99.90;;;;;;5001979;28;20292;-81
2023/11/10 04:19:35;;;;;;;11.43;10.13;;;8.80;99.90;;;;;;4996436;28;20292;-81
2023/11/10 04:22:01;;;;;;;13.82;12.20;;;8.80;99.90;;;;;;5011466;28;20292;-81
2023/11/10 04:24:28;;;;;;;11.50;10.35;;;8.80;99.90;;;;;;5007538;28;20243;-81
2023/11/10 04:26:56;;;;;;;11.20;9.82;;;8.90;99.90;;;;;;5017779;28;20576;-82
2023/11/10 04:29:23;;;;;;;11.23;10.15;;;8.90;99.90;;;;;;5011408;28;20198;-82
2023/11/10 04:31:50;;;;;;;10.07;9.00;;;8.90;99.90;;;;;;5006108;28;20261;-82
2023/11/10 04:34:17;;;;;;;11.45;9.02;;;8.80;99.90;;;;;;5013880;28;20273;-81
2023/11/10 04:36:45;;;;;;;9.70;8.30;;;9.00;99.90;;;;;;4999340;28;20229;-82
2023/11/10 04:39:12;;;;;;;9.20;8.25;;;8.90;99.90;;;;;;5006288;28;20308;-82
2023/11/10 04:41:39;;;;;;;9.40;8.35;;;8.70;99.90;;;;;;5002612;28;20226;-81
2023/11/10 04:44:08;;;;;;;13.65;8.45;;;8.90;99.90;;;;;;5005576;28;20501;-82
2023/11/10 04:46:39;;;;;;;9.25;8.38;;;8.90;99.90;;;;;;5007375;28;20687;-82
2023/11/10 04:49:06;;;;;;;10.23;7.65;;;8.90;99.90;;;;;;4996691;28;20313;-81
2023/11/10 04:51:33;;;;;;;10.35;8.57;;;8.90;99.90;;;;;;5000026;28;20217;-81
2023/11/10 04:54:00;;;;;;;8.38;7.60;;;9.00;99.90;;;;;;5000996;28;20285;-81
2023/11/10 04:56:27;;;;;;;11.00;8.07;;;9.00;99.90;;;;;;5012293;28;20240;-81
2023/11/10 04:58:54;;;;;;;13.18;8.07;;;9.00;99.90;;;;;;5009752;28;20312;-80
2023/11/10 05:01:23;;;;;;;9.80;7.28;;;9.00;99.90;;;;;;5004330;28;20225;-80
2023/11/10 05:03:50;;;;;;;11.73;7.35;;;8.90;99.90;;;;;;5011003;28;20201;-80
2023/11/10 05:06:17;;;;;;;6.20;5.47;;;8.90;99.90;;;;;;5003488;28;20205;-81
2023/11/10 05:08:44;;;;;;;6.75;6.00;;;8.90;99.90;;;;;;5010755;28;20225;-82
2023/11/10 05:11:11;;;;;;;9.38;6.28;;;9.00;99.90;;;;;;5006421;28;20210;-81
2023/11/10 05:13:39;;;;;;;7.40;6.18;;;9.10;99.90;;;;;;5003619;28;20273;-82
2023/11/10 05:16:07;;;;;;;18.63;7.18;;;9.00;99.90;;;;;;5006909;28;20214;-81
2023/11/10 05:18:35;;;;;;;6.80;6.10;;;9.00;99.90;;;;;;5004463;28;20772;-81
2023/11/10 05:21:02;;;;;;;6.60;5.90;;;9.10;99.90;;;;;;4999817;28;20218;-82
2023/11/10 05:23:29;;;;;;;7.50;5.10;;;9.10;99.90;;;;;;5000785;28;20277;-81
2023/11/10 05:25:55;;;;;;;7.20;6.22;;;9.10;99.90;;;;;;4998288;28;20205;-82
2023/11/10 05:28:22;;;;;;;7.95;6.70;;;9.10;99.90;;;;;;4997798;28;20224;-81
2023/11/10 05:30:49;;;;;;;7.72;6.07;;;9.10;99.90;;;;;;5003945;28;20206;-81
2023/11/10 05:33:16;;;;;;;9.57;7.18;;;9.10;99.90;;;;;;5011036;28;20393;-82
2023/11/10 05:35:44;;;;;;;6.38;5.88;;;9.00;99.90;;;;;;5011877;28;20240;-82
2023/11/10 05:38:11;;;;;;;9.65;6.28;;;9.10;99.90;;;;;;5007659;28;20281;-81
2023/11/10 05:40:39;;;;;;;6.80;5.75;;;9.00;99.90;;;;;;5006625;28;20227;-82
2023/11/10 05:43:06;;;;;;;7.85;6.45;;;8.90;99.90;;;;;;4997171;28;20217;-82
2023/11/10 05:45:33;;;;;;;7.10;5.75;;;9.00;99.90;;;;;;5011026;28;20332;-82
2023/11/10 05:48:00;;;;;;;7.30;5.55;;;8.90;99.90;;;;;;5002189;28;20236;-82
2023/11/10 05:50:27;;;;;;;6.82;6.13;;;9.00;99.90;;;;;;4996517;28;20241;-82
2023/11/10 05:52:55;;;;;;;9.43;6.22;;;8.90;99.90;;;;;;5000553;28;20564;-82
2023/11/10 05:55:23;;;;;;;7.50;5.63;;;9.00;99.90;;;;;;5008652;28;20585;-81
2023/11/10 05:57:50;;;;;;;8.43;6.03;;;9.00;99.90;;;;;;5012926;28;20240;-81
2023/11/10 06:00:18;;;;;;;8.45;4.22;;;9.00;99.90;;;;;;4998970;28;20206;-85
2023/11/10 06:02:56;;;;;;;7.57;4.95;;;9.00;99.90;;;;;;5010103;28;20236;-82
2023/11/10 06:05:24;;;;;;;10.38;5.45;;;8.90;99.90;;;;;;4997439;28;21673;-83
2023/11/10 06:07:53;;;;;;;6.43;4.80;;;8.80;99.90;;;;;;5015321;28;20587;-80
2023/11/10 06:10:21;;;;;;;7.00;4.40;;;8.90;99.90;;;;;;5005287;28;20244;-81
2023/11/10 06:12:50;;;;;;;7.15;5.65;;;8.80;99.90;;;;;;5003267;28;20213;-82
2023/11/10 06:15:19;;;;;;;8.57;4.93;;;8.70;99.90;;;;;;5001845;28;20193;-81
2023/11/10 06:17:45;;;;;;;8.00;4.68;;;8.70;99.90;;;;;;5011578;28;20245;-82
2023/11/10 06:20:12;;;;;;;9.40;4.65;;;8.70;99.90;;;;;;5009688;28;20234;-82
2023/11/10 06:22:40;;;;;;;6.00;5.28;;;8.70;99.90;;;;;;5009523;28;20226;-83
2023/11/10 06:25:08;;;;;;;8.25;4.80;;;8.60;99.90;;;;;;4996011;28;20206;-83
2023/11/10 06:27:36;;;;;;;6.35;4.05;;;8.60;99.90;;;;;;5004566;28;20244;-82
2023/11/10 06:30:04;;;;;;;14.65;4.82;;;8.50;99.90;;;;;;5011941;28;20233;-82
2023/11/10 06:32:31;;;;;;;7.68;4.70;;;8.50;99.90;;;;;;5008787;28;20274;-83
2023/11/10 06:34:58;;;;;;;7.30;5.00;;;8.60;99.90;;;;;;5013388;28;20228;-81
2023/11/10 06:37:25;;;;;;;5.60;4.53;;;8.70;99.90;;;;;;5002883;28;20311;-82
2023/11/10 06:39:52;;;;;;;7.20;4.30;;;8.60;99.90;;;;;;5004846;28;20580;-82
2023/11/10 06:42:20;;;;;;;5.18;3.58;;;8.60;99.90;;;;;;5012655;28;20251;-81
2023/11/10 06:44:49;;;;;;;5.22;4.38;;;8.70;99.90;;;;;;5005572;28;20304;-83
2023/11/10 06:47:16;;;;;;;11.82;3.63;;;8.70;99.90;;;;;;5006494;28;20220;-82
2023/11/10 06:49:43;;;;;;;5.00;4.18;;;8.70;99.90;;;;;;5011454;28;20205;-81
2023/11/10 06:52:11;;;;;;;7.43;3.65;;;8.80;99.90;;;;;;5003554;28;20277;-82
2023/11/10 06:54:38;;;;;;;6.32;3.30;;;8.80;99.90;;;;;;4999183;28;20212;-83
2023/11/10 06:57:06;;;;;;;6.43;3.53;;;8.90;99.90;;;;;;5004130;28;20577;-82
2023/11/10 06:59:34;;;;;;;4.50;4.10;;;9.00;99.90;;;;;;4993451;28;20659;-81
2023/11/10 07:02:03;;;;;;;4.40;3.80;;;9.00;99.90;;;;;;4993617;28;20262;-81
2023/11/10 07:04:30;;;;;;;8.27;3.40;;;9.10;99.90;;;;;;4983796;28;20207;-82
2023/11/10 07:06:57;;;;;;;4.85;3.30;;;9.10;99.90;;;;;;4988036;28;20220;-81
2023/11/10 07:09:25;;;;;;;6.15;3.15;;;9.20;99.90;;;;;;4990902;28;20623;-82
2023/11/10 07:11:52;;;;;;;4.30;3.15;;;9.20;99.90;;;;;;4992760;28;20729;-82
2023/11/10 07:14:19;;;;;;;5.05;3.65;;;9.20;99.90;;;;;;5000224;28;20265;-82
2023/11/10 07:16:46;;;;;;;4.45;4.05;;;9.20;99.90;;;;;;4993525;28;20214;-82
2023/11/10 07:19:14;;;;;;;6.65;3.53;;;9.30;99.90;;;;;;4994449;28;20908;-83
2023/11/10 07:21:41;;;;;;;7.15;4.72;;;9.30;99.90;;;;;;4988310;28;20253;-81
2023/11/10 07:24:09;;;;;;;6.63;3.92;;;9.20;99.90;;;;;;5001547;28;20213;-81
2023/11/10 07:26:35;;;;;;;5.32;3.65;;;9.30;99.90;;;;;;4995757;28;20207;-81
2023/11/10 07:29:03;;;;;;;5.93;3.50;;;9.30;99.90;;;;;;4992616;28;20226;-82
2023/11/10 07:31:31;;;;;;;8.20;6.88;;;9.30;99.90;;;;;;4998890;28;20207;-81
2023/11/10 07:34:33;;;;;;;3.80;3.50;;;9.30;99.90;;;;;;4998179;28;20209;-84
2023/11/10 07:37:00;;;;;;;5.60;4.13;;;9.40;99.90;;;;;;4975216;28;20214;-81
2023/11/10 07:39:30;;;;;;;4.97;3.92;;;9.40;99.90;;;;;;4985851;28;20693;-80
2023/11/10 07:42:22;;;;;;;4.57;4.18;;;9.50;99.90;;;;;;5003534;28;20229;-84
2023/11/10 07:44:50;;;;;;;4.47;3.88;;;9.50;99.90;;;;;;4998487;28;20215;-84
2023/11/10 07:47:17;;;;;;;10.32;5.22;;;9.40;99.90;;;;;;5002749;28;20249;-85
2023/11/10 07:49:45;;;;;;;7.10;5.20;;;9.50;99.90;;;;;;5013677;28;20217;-82
2023/11/10 07:52:27;;;;;;;5.97;4.20;;;9.40;99.90;;;;;;5002265;28;20206;-84
2023/11/10 07:54:54;;;;;;;9.82;4.47;;;9.30;99.90;;;;;;5002893;28;20229;-84
2023/11/10 07:57:22;;;;;;;5.50;4.80;;;9.30;99.90;;;;;;5004796;28;20260;-86
2023/11/10 07:59:49;;;;;;;6.80;4.47;;;9.30;99.90;;;;;;5010368;28;20293;-83
2023/11/10 08:02:19;;;;;;;4.28;3.88;;;9.40;99.90;;;;;;5004189;28;20249;-82
2023/11/10 08:04:47;;;;;;;5.88;4.85;;;9.40;99.90;;;;;;4994806;28;20218;-85
2023/11/10 08:07:14;;;;;;;4.80;4.32;;;9.20;99.90;;;;;;5004925;28;20217;-83
2023/11/10 08:09:41;;;;;;;9.43;4.72;;;9.20;99.90;;;;;;5001465;28;20233;-84
2023/11/10 08:12:08;;;;;;;5.20;4.47;;;9.20;99.90;;;;;;5003687;28;20308;-83
2023/11/10 08:14:36;;;;;;;4.80;4.30;;;9.30;99.90;;;;;;4999685;28;20186;-82
2023/11/10 08:17:06;;;;;;;7.22;5.32;;;9.30;99.90;;;;;;5003628;28;20244;-82
2023/11/10 08:19:33;;;;;;;6.57;4.60;;;9.30;99.90;;;;;;4992763;28;20213;-83
2023/11/10 08:22:01;;;;;;;6.20;4.35;;;9.40;99.90;;;;;;5001284;28;20277;-83
2023/11/10 08:24:30;;;;;;;6.63;5.30;;;9.40;99.90;;;;;;5001340;28;20229;-85
2023/11/10 08:26:57;;;;;;;8.52;4.85;;;9.50;99.90;;;;;;5001014;28;20338;-84
2023/11/10 08:29:24;;;;;;;5.78;4.13;;;9.50;99.90;;;;;;5000516;28;20203;-82
2023/11/10 08:31:52;;;;;;;5.40;4.90;;;9.50;99.90;;;;;;5003634;28;20231;-84
2023/11/10 08:34:21;;;;;;;6.47;4.80;;;9.70;99.90;;;;;;5003377;28;20230;-85
2023/11/10 08:36:48;;;;;;;10.10;5.35;;;9.50;99.90;;;;;;5002477;28;20221;-80
2023/11/10 08:39:18;;;;;;;8.45;5.35;;;9.50;99.90;;;;;;4996217;28;20217;-80
2023/11/10 08:41:48;;;;;;;13.00;6.18;;;9.60;99.90;;;;;;5004243;28;20284;-83
2023/11/10 08:44:15;;;;;;;6.22;4.50;;;9.50;99.90;;;;;;5017625;28;20211;-83
2023/11/10 08:46:44;;;;;;;4.75;4.00;;;9.70;99.90;;;;;;5011469;28;20237;-83
2023/11/10 08:49:11;;;;;;;5.68;4.45;;;9.70;99.90;;;;;;5014963;28;20256;-83
2023/11/10 08:51:39;;;;;;;6.15;4.20;;;9.70;99.90;;;;;;5016480;28;20189;-84
2023/11/10 08:54:06;;;;;;;8.38;5.63;;;9.70;99.90;;;;;;5017032;28;20216;-84
2023/11/10 08:56:35;;;;;;;7.15;5.50;;;10.00;99.90;;;;;;5017137;28;20193;-83
2023/11/10 08:59:01;;;;;;;6.90;4.78;;;10.00;99.90;;;;;;5020513;28;20213;-82
2023/11/10 09:01:28;;;;;;;12.35;5.35;;;10.20;99.90;;;;;;5017311;28;20220;-81
2023/11/10 09:03:55;;;;;;;6.38;4.88;;;10.30;99.90;;;;;;5011259;28;20538;-82
2023/11/10 09:06:22;;;;;;;9.48;5.50;;;10.40;99.90;;;;;;5003402;28;20205;-83
2023/11/10 09:08:49;;;;;;;6.68;5.22;;;10.50;99.90;;;;;;5004564;28;20207;-81
2023/11/10 09:11:16;;;;;;;9.88;4.00;;;10.40;99.90;;;;;;4997133;28;20269;-82
2023/11/10 09:13:44;;;;;;;6.18;5.55;;;10.30;99.90;;;;;;5001955;28;20584;-84
2023/11/10 09:16:11;;;;;;;9.68;5.35;;;10.20;99.90;;;;;;5006905;28;20268;-84
2023/11/10 09:18:38;;;;;;;8.90;4.32;;;10.20;99.90;;;;;;5009354;28;20253;-83
2023/11/10 09:21:07;;;;;;;6.07;4.70;;;10.20;99.90;;;;;;5006102;28;20229;-85
2023/11/10 09:23:34;;;;;;;7.90;4.70;;;10.20;99.90;;;;;;5002520;28;20218;-84
2023/11/10 09:26:02;;;;;;;4.22;3.75;;;10.10;99.90;;;;;;4997959;28;20199;-84
2023/11/10 09:28:30;;;;;;;7.20;5.47;;;10.10;99.90;;;;;;5000687;28;20217;-83
2023/11/10 09:31:00;;;;;;;5.25;4.60;;;10.10;99.90;;;;;;5004781;28;20198;-86
2023/11/10 09:33:27;;;;;;;5.13;4.65;;;10.00;99.90;;;;;;4999808;28;20292;-81
2023/11/10 09:35:54;;;;;;;4.60;4.10;;;10.00;99.90;;;;;;5009576;28;20637;-81
2023/11/10 09:38:21;;;;;;;4.28;3.45;;;10.10;99.90;;;;;;5013191;28;20249;-68
2023/11/10 09:40:48;;;;;;;4.13;3.70;;;10.10;99.90;;;;;;4995428;28;20213;-64
2023/11/10 09:43:15;;;;;;;5.68;3.78;;;10.20;99.90;;;;;;4987019;28;20225;-64
2023/11/10 09:45:44;;;;;;;7.57;3.95;;;10.20;99.90;;;;;;4987324;28;20576;-63
2023/11/10 09:48:13;;;;;;;4.10;3.65;;;10.10;99.90;;;;;;4984644;28;20232;-63
2023/11/10 09:50:42;;;;;;;6.03;3.50;;;10.20;99.90;;;;;;4984992;28;20202;-67
2023/11/10 09:53:09;;;;;;;6.93;3.20;;;10.40;99.90;;;;;;4980734;28;20230;-64
2023/11/10 09:55:37;;;;;;;6.03;3.35;;;10.60;99.90;;;;;;4986652;28;20597;-62
2023/11/10 09:58:05;;;;;;;7.50;4.00;;;10.70;99.90;;;;;;4986315;28;20300;-64
2023/11/10 10:00:33;;;;;;;4.38;2.92;;;10.70;99.90;;;;;;5023505;23;20242;-67
2023/11/10 10:02:59;;;;;;;9.40;4.43;;;10.70;99.90;;;;;;5000013;28;20890;-66
2023/11/10 10:05:28;;;;;;;5.88;3.05;;;10.80;99.90;;;;;;4997536;28;20241;-64
2023/11/10 10:07:54;;;;;;;3.83;3.00;;;10.70;99.90;;;;;;4998616;28;20204;-64
2023/11/10 10:10:24;;;;;;;8.25;3.42;;;10.90;99.90;;;;;;4996447;28;20233;-64
2023/11/10 10:12:51;;;;;;;5.13;2.60;;;10.80;99.90;;;;;;4999950;28;20211;-66
2023/11/10 10:15:26;;;;;;;4.70;2.80;;;11.30;99.90;;;;;;4996947;28;20200;-65
2023/11/10 10:17:53;;;;;;;7.82;2.33;;;12.10;99.90;;;;;;4998320;28;20207;-66
2023/11/10 10:20:21;;;;;;;3.25;2.38;;;12.90;99.90;;;;;;4997968;28;20271;-67
2023/11/10 10:22:50;;;;;;;4.05;3.00;;;13.40;99.90;;;;;;4999961;28;20229;-66
2023/11/10 10:25:20;;;;;;;10.50;3.22;;;13.60;99.90;;;;;;4996478;28;20205;-65
2023/11/10 10:27:50;;;;;;;5.28;3.25;;;13.40;99.90;;;;;;4999431;28;20231;-64
2023/11/10 10:30:18;;;;;;;4.22;3.35;;;13.00;99.90;;;;;;4998765;28;20225;-64
2023/11/10 10:32:44;;;;;;;3.50;3.17;;;12.50;99.90;;;;;;4998211;28;20213;-66
2023/11/10 10:35:12;;;;;;;5.40;4.45;;;12.10;99.90;;;;;;4996350;28;20232;-66
2023/11/10 10:37:40;;;;;;;9.25;4.20;;;12.10;99.90;;;;;;4998722;28;20217;-65
2023/11/10 10:40:11;;;;;;;6.68;4.30;;;11.90;99.90;;;;;;4999579;28;20715;-65
2023/11/10 10:42:42;;;;;;;4.38;3.33;;;11.80;99.90;;;;;;5007862;28;20235;-68
2023/11/10 10:45:10;;;;;;;5.75;4.10;;;11.80;99.90;;;;;;4996910;28;20226;-65
2023/11/10 10:47:38;;;;;;;4.80;3.92;;;11.70;99.90;;;;;;4997595;28;20202;-65
2023/11/10 10:50:07;;;;;;;6.97;4.22;;;11.70;99.90;;;;;;4995686;28;20228;-66
2023/11/10 10:52:34;;;;;;;6.35;5.30;;;11.60;99.90;;;;;;5000829;28;20607;-66
2023/11/10 10:55:03;;;;;;;6.30;4.45;;;11.40;99.90;;;;;;4996355;28;20565;-65
2023/11/10 10:57:32;;;;;;;7.97;4.15;;;11.40;99.90;;;;;;4994677;28;20314;-64
2023/11/10 10:59:58;;;;;;;9.95;5.20;;;11.30;99.90;;;;;;4995031;28;20744;-66
2023/11/10 11:02:27;;;;;;;6.82;4.00;;;11.40;99.90;;;;;;4996767;28;20238;-66
2023/11/10 11:05:00;;;;;;;7.50;5.60;;;11.30;99.90;;;;;;4997228;28;20305;-65
2023/11/10 11:07:54;;;;;;;8.43;4.45;;;11.30;99.90;;;;;;4995027;28;20208;-67
2023/11/10 11:10:37;;;;;;;10.15;4.03;;;11.30;99.90;;;;;;4996060;28;20223;-65
2023/11/10 11:13:39;;;;;;;4.03;3.60;;;11.10;99.90;;;;;;4994296;28;20206;-66
2023/11/10 11:16:40;;;;;;;8.55;3.28;;;11.10;99.90;;;;;;4994397;28;20228;-65
2023/11/10 11:19:23;;;;;;;6.20;3.58;;;11.10;99.90;;;;;;4997102;28;20278;-67
2023/11/10 11:21:51;;;;;;;7.90;3.40;;;11.10;99.90;;;;;;5008064;28;20239;-65
2023/11/10 11:24:19;;;;;;;4.85;2.90;;;11.10;99.90;;;;;;5008596;28;20224;-65
2023/11/10 11:26:55;;;;;;;5.13;3.65;;;11.40;99.90;;;;;;5002438;28;20302;-65
2023/11/10 11:29:25;;;;;;;4.75;3.15;;;11.70;99.90;;;;;;4997341;28;20232;-66
2023/11/10 11:31:52;;;;;;;6.28;2.45;;;11.90;99.90;;;;;;4997460;28;20292;-66
2023/11/10 11:34:20;;;;;;;3.33;2.38;;;12.00;99.90;;;;;;4996031;28;20555;-66
2023/11/10 11:36:49;;;;;;;6.00;2.63;;;12.00;99.90;;;;;;4994871;28;20215;-66
2023/11/10 11:39:19;;;;;;;5.63;2.97;;;11.80;99.90;;;;;;5001826;28;20232;-66
2023/11/10 11:41:50;;;;;;;7.90;2.95;;;11.80;99.90;;;;;;5013372;28;20231;-66
2023/11/10 11:44:26;;;;;;;4.95;2.72;;;11.80;99.90;;;;;;4999694;28;20239;-66
2023/11/10 11:46:57;;;;;;;4.78;2.63;;;11.80;99.90;;;;;;4994345;28;20263;-66
2023/11/10 11:49:26;;;;;;;8.02;2.95;;;11.50;99.90;;;;;;5000954;28;20637;-65
2023/11/10 11:51:54;;;;;;;7.63;2.60;;;11.60;99.90;;;;;;4995149;28;20217;-66
2023/11/10 11:54:21;;;;;;;4.60;2.17;;;11.60;99.90;;;;;;4997687;28;20199;-65
2023/11/10 11:56:48;;;;;;;5.82;2.83;;;11.50;99.90;;;;;;4996121;28;20208;-65
2023/11/10 11:59:16;;;;;;;4.20;2.75;;;11.50;99.90;;;;;;4999551;28;20586;-64
2023/11/10 12:01:45;;;;;;;2.47;1.80;;;11.40;99.90;;;;;;5001230;28;20270;-65
2023/11/10 12:04:12;;;;;;;8.50;2.30;;;11.30;99.90;;;;;;4992596;28;20601;-65
2023/11/10 12:06:40;;;;;;;4.20;2.67;;;11.30;99.90;;;;;;4994587;28;20234;-65
2023/11/10 12:09:07;;;;;;;5.30;3.20;;;11.40;99.90;;;;;;4994479;28;20237;-65
2023/11/10 12:11:35;;;;;;;9.30;3.92;;;11.50;99.90;;;;;;4995101;28;20654;-66
2023/11/10 12:14:03;;;;;;;8.27;3.97;;;11.60;99.90;;;;;;4994030;28;20197;-66
2023/11/10 12:16:31;;;;;;;3.88;3.28;;;11.70;99.90;;;;;;4992825;28;20208;-65
2023/11/10 12:19:01;;;;;;;8.07;5.45;;;11.80;99.90;;;;;;4993979;28;20284;-66
2023/11/10 12:21:29;;;;;;;4.97;4.00;;;11.90;99.90;;;;;;5002745;28;20291;-66
2023/11/10 12:24:02;;;;;;;3.97;3.67;;;12.40;99.90;;;;;;5008157;28;20354;-66
2023/11/10 12:26:30;;;;;;;5.10;3.90;;;12.60;99.90;;;;;;5003787;28;20205;-65
2023/11/10 12:28:56;;;;;;;6.45;4.70;;;12.60;99.90;;;;;;4995862;28;20729;-65
2023/11/10 12:31:23;;;;;;;7.00;4.15;;;12.40;99.90;;;;;;4993253;28;20209;-66
2023/11/10 12:33:50;;;;;;;4.20;3.42;;;12.60;99.90;;;;;;4992520;28;20593;-64
2023/11/10 12:36:20;;;;;;;8.48;3.92;;;12.60;99.90;;;;;;4995167;28;20203;-66
2023/11/10 12:38:51;;;;;;;3.95;3.40;;;12.60;99.90;;;;;;5003136;28;20235;-65
2023/11/10 12:41:18;;;;;;;3.85;3.50;;;12.70;99.90;;;;;;5013083;28;20308;-64
2023/11/10 12:43:45;;;;;;;9.20;4.30;;;12.70;99.90;;;;;;4994526;28;20591;-65
2023/11/10 12:46:12;;;;;;;4.40;3.92;;;12.20;99.90;;;;;;5002776;28;20235;-66
2023/11/10 12:48:41;;;;;;;4.65;3.53;;;11.90;99.90;;;;;;4999126;28;20231;-65
2023/11/10 12:51:09;;;;;;;4.30;3.90;;;11.80;99.90;;;;;;4998813;28;20204;-65
2023/11/10 12:53:38;;;;;;;5.47;3.60;;;11.60;99.90;;;;;;5000931;28;20676;-67
2023/11/10 12:56:06;;;;;;;5.65;3.72;;;11.50;99.90;;;;;;5000406;28;20204;-66